Time;durP1;ratioP1;P1;durP2;ratioP2;P2;SDS_P1;SDS_P2;PMS_P1;PMS_P2;Temp;Humidity;BMP_temperature;BMP_pressure;BME280_temperature;BME280_humidity;BME280_pressure;Samples;Min_cycle;Max_cycle;Signal;HPM_P1;HPM_P2
2021/06/23 00:00:38;;;;;;;8.90;6.10;;;;;;;16.95;57.66;101952.59;5056216;27;122447;-73
2021/06/23 00:03:05;;;;;;;10.73;6.13;;;;;;;16.90;57.65;101951.06;5040718;27;119320;-73
2021/06/23 00:05:32;;;;;;;11.23;7.07;;;;;;;16.83;57.71;101944.28;5043373;27;119641;-74
2021/06/23 00:07:59;;;;;;;11.13;6.40;;;;;;;16.80;57.82;101938.22;5042805;27;123173;-73
2021/06/23 00:10:26;;;;;;;14.02;6.90;;;;;;;16.75;57.98;101941.16;5042794;27;123953;-73
2021/06/23 00:12:54;;;;;;;11.68;6.82;;;;;;;16.72;57.94;101941.28;5040292;27;121034;-73
2021/06/23 00:15:22;;;;;;;9.60;6.07;;;;;;;16.72;58.23;101933.28;5034971;27;119858;-73
2021/06/23 00:17:49;;;;;;;11.63;6.68;;;;;;;16.70;58.14;101927.13;5035937;27;123805;-72
2021/06/23 00:20:16;;;;;;;10.00;6.72;;;;;;;16.68;58.05;101918.34;5043767;27;123753;-72
2021/06/23 00:22:43;;;;;;;10.13;6.50;;;;;;;16.66;58.17;101920.22;5035299;27;119200;-72
2021/06/23 00:25:11;;;;;;;15.45;6.95;;;;;;;16.63;58.00;101925.72;5042655;27;118829;-73
2021/06/23 00:27:38;;;;;;;9.70;6.53;;;;;;;16.61;57.95;101930.31;5034107;27;123644;-72
2021/06/23 00:30:06;;;;;;;10.10;6.82;;;;;;;16.57;57.92;101926.06;5039993;27;123034;-72
2021/06/23 00:32:35;;;;;;;14.43;7.18;;;;;;;16.53;57.96;101925.38;5039177;27;119716;-72
2021/06/23 00:35:03;;;;;;;11.55;7.10;;;;;;;16.52;58.06;101926.31;5044871;27;118319;-72
2021/06/23 00:37:30;;;;;;;12.27;7.20;;;;;;;16.53;57.98;101936.91;5040436;27;122396;-72
2021/06/23 00:39:57;;;;;;;11.52;7.28;;;;;;;16.53;57.96;101942.25;5041303;27;123754;-72
2021/06/23 00:42:25;;;;;;;13.40;7.70;;;;;;;16.53;57.91;101942.25;5043582;27;119082;-72
2021/06/23 00:44:53;;;;;;;12.68;6.88;;;;;;;16.52;58.01;101940.56;5058647;27;118555;-72
2021/06/23 00:47:24;;;;;;;13.43;7.53;;;;;;;16.53;58.01;101939.59;5041744;27;123764;-72
2021/06/23 00:49:52;;;;;;;13.43;7.05;;;;;;;16.53;58.04;101936.91;5041267;27;124266;-72
2021/06/23 00:52:45;;;;;;;13.50;7.70;;;;;;;16.52;57.96;101935.19;5042503;27;118965;-73
2021/06/23 00:55:31;;;;;;;11.20;6.90;;;;;;;16.50;57.94;101937.09;5035808;27;119632;-72
2021/06/23 00:57:58;;;;;;;11.18;6.95;;;;;;;16.49;57.98;101935.34;5032221;27;123698;-72
2021/06/23 01:00:29;;;;;;;12.07;7.63;;;;;;;16.50;57.98;101936.22;5035241;27;123274;-73
2021/06/23 01:03:05;;;;;;;11.70;7.25;;;;;;;16.50;58.08;101937.09;5045784;27;120879;-72
2021/06/23 01:05:36;;;;;;;9.90;7.07;;;;;;;16.51;57.98;101941.47;5048150;27;119361;-73
2021/06/23 01:08:08;;;;;;;13.35;7.28;;;;;;;16.51;58.03;101946.84;5032930;27;124153;-72
2021/06/23 01:10:37;;;;;;;13.10;7.53;;;;;;;16.52;58.04;101945.91;5039902;27;124115;-73
2021/06/23 01:13:28;;;;;;;11.98;7.28;;;;;;;16.50;57.72;101942.44;5034401;27;118842;-72
2021/06/23 01:15:58;;;;;;;10.57;7.13;;;;;;;16.52;58.17;101951.25;5034987;27;119225;-73
2021/06/23 01:18:26;;;;;;;10.93;7.13;;;;;;;16.54;57.84;101960.06;5038831;27;123998;-72
2021/06/23 01:20:54;;;;;;;14.32;7.68;;;;;;;16.57;58.03;101958.16;5053437;27;123897;-73
2021/06/23 01:23:22;;;;;;;12.32;7.55;;;;;;;16.58;58.08;101959.91;5037449;27;119301;-73
2021/06/23 01:25:51;;;;;;;13.38;7.28;;;;;;;16.58;58.04;101951.88;5037772;27;119198;-73
2021/06/23 01:28:18;;;;;;;11.98;7.28;;;;;;;16.55;57.89;101951.06;5041205;27;124449;-73
2021/06/23 01:31:00;;;;;;;11.52;7.18;;;;;;;16.52;57.77;101948.56;5034230;27;123021;-73
2021/06/23 01:33:31;;;;;;;12.48;6.65;;;;;;;16.51;57.89;101954.00;5045715;27;119411;-72
2021/06/23 01:36:00;;;;;;;11.52;6.97;;;;;;;16.49;57.99;101962.09;5020880;27;97031;-72
2021/06/23 01:38:28;;;;;;;11.70;6.80;;;;;;;16.50;57.72;101963.84;4996110;28;123380;-72
2021/06/23 01:40:57;;;;;;;11.25;7.38;;;;;;;16.51;58.10;101965.56;5021154;27;124141;-73
2021/06/23 01:43:25;;;;;;;10.25;6.63;;;;;;;16.50;58.10;101968.31;5021673;27;119512;-72
2021/06/23 01:45:52;;;;;;;14.00;6.80;;;;;;;16.52;58.05;101972.66;5017645;27;118406;-72
2021/06/23 01:48:22;;;;;;;11.48;6.60;;;;;;;16.50;57.98;101970.97;5030865;27;123142;-72
2021/06/23 01:50:59;;;;;;;9.32;6.63;;;;;;;16.47;57.96;101976.50;5021804;27;123226;-72
2021/06/23 01:53:34;;;;;;;12.10;6.68;;;;;;;16.46;57.97;101983.66;5018063;27;119808;-72
2021/06/23 01:56:04;;;;;;;11.73;6.70;;;;;;;16.45;57.94;101981.91;5014036;27;120459;-72
2021/06/23 01:58:39;;;;;;;11.68;6.20;;;;;;;16.44;57.95;101980.19;5020220;27;124859;-72
2021/06/23 02:01:52;;;;;;;14.07;6.72;;;;;;;16.43;57.91;101977.59;5020216;27;124574;-72
2021/06/23 02:05:13;;;;;;;10.93;6.43;;;;;;;16.41;57.77;101985.72;5014873;27;119071;-73
2021/06/23 02:07:54;;;;;;;12.45;5.88;;;;;;;16.38;57.82;101972.47;5011944;27;119672;-73
2021/06/23 02:10:55;;;;;;;11.13;6.20;;;;;;;16.34;57.90;101982.47;5004108;28;123622;-73
2021/06/23 02:13:51;;;;;;;11.47;6.13;;;;;;;16.33;57.92;101977.19;5018117;27;123553;-72
2021/06/23 02:16:36;;;;;;;10.20;5.88;;;;;;;16.34;58.11;101978.94;5023605;27;118531;-73
2021/06/23 02:19:07;;;;;;;11.90;6.05;;;;;;;16.34;58.14;101978.94;5022552;27;118702;-72
2021/06/23 02:22:04;;;;;;;11.45;6.13;;;;;;;16.36;58.07;101979.72;5017097;27;123677;-73
2021/06/23 02:24:33;;;;;;;12.40;6.22;;;;;;;16.35;58.24;101983.34;5032778;27;122337;-73
2021/06/23 02:27:13;;;;;;;11.23;6.45;;;;;;;16.38;58.35;101985.84;5013824;27;118835;-73
2021/06/23 02:29:45;;;;;;;10.80;6.50;;;;;;;16.41;58.35;101988.38;5009385;28;118553;-72
2021/06/23 02:32:19;;;;;;;10.98;6.57;;;;;;;16.43;58.46;101989.16;5024004;27;124095;-73
2021/06/23 02:34:53;;;;;;;11.63;6.30;;;;;;;16.46;58.43;102005.06;5019833;27;123939;-73
2021/06/23 02:37:29;;;;;;;9.23;5.85;;;;;;;16.49;58.32;101999.53;5024512;27;117706;-73
2021/06/23 02:39:58;;;;;;;11.32;5.82;;;;;;;16.51;58.30;101994.97;5016158;27;118533;-72
2021/06/23 02:42:26;;;;;;;10.90;5.95;;;;;;;16.53;58.46;102001.09;5019971;27;123296;-73
2021/06/23 02:44:54;;;;;;;14.25;6.00;;;;;;;16.57;58.44;101998.28;5012445;27;124088;-73
2021/06/23 02:47:21;;;;;;;11.93;5.80;;;;;;;16.59;58.43;101999.06;5017824;28;120461;-73
2021/06/23 02:50:06;;;;;;;7.97;5.45;;;;;;;16.61;58.31;101991.81;5012885;27;119132;-73
2021/06/23 02:52:54;;;;;;;11.90;5.45;;;;;;;16.63;58.21;102000.63;5018344;27;123994;-72
2021/06/23 02:55:23;;;;;;;12.48;5.30;;;;;;;16.61;58.26;101997.16;5020703;27;124056;-73
2021/06/23 02:57:52;;;;;;;11.40;5.28;;;;;;;16.61;58.23;101997.16;5021835;27;119278;-73
2021/06/23 03:00:19;;;;;;;9.25;5.07;;;;;;;16.63;58.38;101995.28;5018058;27;118278;-73
2021/06/23 03:02:49;;;;;;;8.90;5.13;;;;;;;16.64;58.21;101991.69;5012858;27;125819;-73
2021/06/23 03:05:17;;;;;;;11.60;5.47;;;;;;;16.64;58.34;101991.69;5019649;27;124204;-72
2021/06/23 03:07:45;;;;;;;9.45;5.50;;;;;;;16.64;58.18;101991.69;5015987;27;119225;-72
2021/06/23 03:10:19;;;;;;;10.25;5.45;;;;;;;16.62;58.17;101990.91;5000443;28;118479;-73
2021/06/23 03:12:58;;;;;;;11.25;5.30;;;;;;;16.60;58.08;101995.47;5020114;27;124325;-73
2021/06/23 03:15:52;;;;;;;10.75;5.25;;;;;;;16.60;58.13;101990.13;5016718;27;124095;-73
2021/06/23 03:18:33;;;;;;;8.45;5.32;;;;;;;16.59;58.14;101993.72;5020023;27;118828;-73
2021/06/23 03:21:03;;;;;;;7.57;5.32;;;;;;;16.60;58.11;101995.47;5011537;27;118198;-73
2021/06/23 03:23:33;;;;;;;10.35;5.70;;;;;;;16.60;58.16;101984.75;5000899;27;124423;-73
2021/06/23 03:26:01;;;;;;;7.97;5.35;;;;;;;16.59;58.05;101983.00;5023634;27;123788;-73
2021/06/23 03:28:28;;;;;;;11.70;5.43;;;;;;;16.60;58.21;101984.75;5013474;27;120019;-73
2021/06/23 03:30:58;;;;;;;10.10;5.57;;;;;;;16.61;58.29;101992.69;5015947;27;120268;-74
2021/06/23 03:33:30;;;;;;;10.18;5.25;;;;;;;16.61;58.30;101989.16;5027306;27;123471;-73
2021/06/23 03:36:16;;;;;;;12.15;5.75;;;;;;;16.61;58.30;101986.47;5026745;27;122974;-73
2021/06/23 03:38:44;;;;;;;9.85;5.20;;;;;;;16.60;58.21;101990.13;5008369;28;120073;-73
2021/06/23 03:41:11;;;;;;;9.20;5.35;;;;;;;16.61;58.47;101997.16;5021048;27;119977;-73
2021/06/23 03:43:39;;;;;;;9.63;5.43;;;;;;;16.60;58.13;101998.13;5008427;28;123400;-73
2021/06/23 03:46:06;;;;;;;11.07;5.88;;;;;;;16.59;58.38;101993.72;5027690;27;123479;-73
2021/06/23 03:48:34;;;;;;;11.52;5.90;;;;;;;16.59;58.31;101993.72;5013812;27;119354;-73
2021/06/23 03:51:04;;;;;;;9.85;5.57;;;;;;;16.59;58.19;101996.38;5021855;27;118089;-73
2021/06/23 03:53:31;;;;;;;10.10;5.50;;;;;;;16.58;58.28;102000.03;5017257;27;124797;-72
2021/06/23 03:56:03;;;;;;;12.05;5.75;;;;;;;16.59;58.22;101993.72;5016266;27;124223;-72
2021/06/23 03:58:31;;;;;;;11.07;5.22;;;;;;;16.59;58.19;101999.06;5001969;28;118651;-72
2021/06/23 04:00:59;;;;;;;10.70;5.50;;;;;;;16.59;58.26;101999.91;5025589;27;117562;-72
2021/06/23 04:03:59;;;;;;;8.50;4.95;;;;;;;16.60;58.06;101999.00;5019242;27;123685;-72
2021/06/23 04:06:46;;;;;;;7.82;5.00;;;;;;;16.60;58.17;101995.47;5022671;27;124277;-72
2021/06/23 04:09:17;;;;;;;13.40;5.30;;;;;;;16.60;58.10;102000.81;5010739;28;118558;-72
2021/06/23 04:11:50;;;;;;;6.95;5.25;;;;;;;16.63;58.18;102003.31;5018211;27;119082;-72
2021/06/23 04:14:17;;;;;;;10.20;5.60;;;;;;;16.63;58.10;102005.97;5016143;27;123433;-72
2021/06/23 04:16:44;;;;;;;9.43;5.18;;;;;;;16.64;58.11;102005.03;5008148;27;122372;-74
2021/06/23 04:19:14;;;;;;;11.65;5.70;;;;;;;16.63;58.10;102004.19;5028401;27;118267;-72
2021/06/23 04:21:52;;;;;;;10.45;5.00;;;;;;;16.64;58.18;102007.72;5021242;27;118515;-72
2021/06/23 04:24:19;;;;;;;9.90;5.35;;;;;;;16.64;57.90;102002.38;5019822;27;123497;-72
2021/06/23 04:26:47;;;;;;;9.93;4.95;;;;;;;16.63;58.05;102016.69;5015651;27;124061;-74
2021/06/23 04:29:17;;;;;;;11.88;5.18;;;;;;;16.63;57.96;102011.31;5021444;27;120365;-72
2021/06/23 04:31:46;;;;;;;10.82;5.60;;;;;;;16.64;58.11;102013.06;4999032;28;119343;-72
2021/06/23 04:34:16;;;;;;;10.82;5.05;;;;;;;16.65;57.87;102014.78;5018231;27;124068;-72
2021/06/23 04:36:46;;;;;;;11.02;5.53;;;;;;;16.66;57.77;102011.19;5023625;27;123038;-72
2021/06/23 04:39:14;;;;;;;9.13;5.18;;;;;;;16.64;57.78;102013.94;5024193;27;119228;-72
2021/06/23 04:42:03;;;;;;;8.50;5.05;;;;;;;16.64;57.69;102003.22;5021231;28;117756;-72
2021/06/23 04:44:30;;;;;;;8.27;4.75;;;;;;;16.63;57.75;102003.31;5020498;27;124308;-72
2021/06/23 04:46:57;;;;;;;7.38;4.82;;;;;;;16.63;57.68;102005.97;5002686;28;124170;-72
2021/06/23 04:49:26;;;;;;;10.75;4.75;;;;;;;16.61;57.46;102007.88;5013307;27;118834;-72
2021/06/23 04:52:14;;;;;;;9.15;4.82;;;;;;;16.59;57.79;102004.41;5006470;28;118516;-72
2021/06/23 04:54:41;;;;;;;7.85;5.05;;;;;;;16.59;57.75;102009.75;5017116;27;124423;-75
2021/06/23 04:57:09;;;;;;;8.40;4.75;;;;;;;16.59;57.85;101997.25;5015671;27;124602;-73
2021/06/23 04:59:36;;;;;;;9.80;5.50;;;;;;;16.61;57.82;102002.53;5018080;27;118645;-73
2021/06/23 05:02:04;;;;;;;7.80;5.20;;;;;;;16.64;57.88;102002.38;5022672;27;118481;-73
2021/06/23 05:04:33;;;;;;;7.88;4.95;;;;;;;16.67;57.94;102004.88;5020488;27;123547;-72
2021/06/23 05:07:07;;;;;;;9.90;5.40;;;;;;;16.71;58.10;102009.13;5000181;28;123251;-73
2021/06/23 05:09:38;;;;;;;11.18;5.13;;;;;;;16.73;58.13;102007.25;5022054;27;118111;-72
2021/06/23 05:12:09;;;;;;;9.18;5.18;;;;;;;16.72;57.86;102010.84;5021555;27;118712;-73
2021/06/23 05:14:37;;;;;;;8.65;5.10;;;;;;;16.73;57.76;102009.91;5016066;28;123929;-72
2021/06/23 05:17:04;;;;;;;9.48;5.32;;;;;;;16.72;57.81;102013.53;5018378;27;123891;-73
2021/06/23 05:19:33;;;;;;;9.07;5.00;;;;;;;16.73;57.67;102017.94;5015208;27;121366;-73
2021/06/23 05:22:03;;;;;;;8.88;5.15;;;;;;;16.74;57.80;102014.31;5012587;27;120030;-73
2021/06/23 05:24:31;;;;;;;11.90;5.45;;;;;;;16.77;57.92;102008.81;5019721;27;124266;-73
2021/06/23 05:26:59;;;;;;;10.00;5.10;;;;;;;16.81;57.90;102007.69;5021304;27;122961;-73
2021/06/23 05:29:26;;;;;;;10.88;5.07;;;;;;;16.83;57.96;102008.50;5006126;28;118694;-73
2021/06/23 05:31:53;;;;;;;10.35;5.43;;;;;;;16.84;57.86;102014.72;5020663;27;118905;-73
2021/06/23 05:34:20;;;;;;;8.90;4.78;;;;;;;16.86;58.01;102008.38;5026367;27;123386;-74
2021/06/23 05:36:47;;;;;;;9.15;4.43;;;;;;;16.89;57.84;102013.53;5018936;27;123989;-73
2021/06/23 05:39:14;;;;;;;13.93;5.80;;;;;;;16.91;57.86;102017.03;5029066;27;119424;-73
2021/06/23 05:41:41;;;;;;;10.60;5.20;;;;;;;16.93;57.84;102020.47;5027501;27;119707;-74
2021/06/23 05:44:08;;;;;;;7.95;4.85;;;;;;;16.95;58.01;102027.53;5023291;27;124057;-73
2021/06/23 05:46:36;;;;;;;8.32;4.85;;;;;;;16.98;57.87;102022.03;5021017;27;123635;-73
2021/06/23 05:49:03;;;;;;;9.48;5.40;;;;;;;17.01;57.95;102022.75;5015934;27;119164;-73
2021/06/23 05:51:30;;;;;;;9.77;5.15;;;;;;;17.04;57.72;102017.19;5022212;27;118819;-73
2021/06/23 05:53:57;;;;;;;7.40;5.05;;;;;;;17.07;57.63;102018.88;5018882;27;123340;-73
2021/06/23 05:56:24;;;;;;;8.98;5.15;;;;;;;17.08;57.52;102023.25;5021249;27;124175;-73
2021/06/23 05:58:52;;;;;;;11.27;5.57;;;;;;;17.07;57.66;102026.91;4998164;28;119256;-73
2021/06/23 06:01:19;;;;;;;7.93;4.80;;;;;;;17.08;57.60;102028.63;5020866;27;119081;-73
2021/06/23 06:03:46;;;;;;;9.50;5.38;;;;;;;17.09;57.80;102035.72;5025472;27;123901;-73
2021/06/23 06:06:14;;;;;;;10.63;4.93;;;;;;;17.10;57.57;102042.78;5025890;27;123733;-72
2021/06/23 06:08:42;;;;;;;13.80;5.18;;;;;;;17.13;57.61;102042.63;5027200;27;120637;-74
2021/06/23 06:11:09;;;;;;;9.43;5.40;;;;;;;17.13;57.58;102040.81;5004189;28;119241;-73
2021/06/23 06:13:36;;;;;;;12.18;5.60;;;;;;;17.12;57.47;102046.25;5024682;27;124282;-74
2021/06/23 06:16:03;;;;;;;12.55;5.30;;;;;;;17.14;57.71;102049.72;5022538;27;124088;-74
2021/06/23 06:18:31;;;;;;;11.75;5.13;;;;;;;17.16;57.41;102046.94;4998261;28;118596;-74
2021/06/23 06:20:58;;;;;;;9.93;5.50;;;;;;;17.17;57.65;102049.53;5027149;27;119489;-74
2021/06/23 06:23:25;;;;;;;8.65;5.63;;;;;;;17.18;57.42;102045.94;5021570;27;124756;-74
2021/06/23 06:25:53;;;;;;;8.23;5.28;;;;;;;17.19;57.38;102053.00;5009489;27;123901;-74
2021/06/23 06:28:21;;;;;;;11.40;5.50;;;;;;;17.21;57.28;102051.09;5015086;27;119574;-74
2021/06/23 06:30:48;;;;;;;9.43;4.65;;;;;;;17.22;57.15;102052.84;5028756;27;119169;-74
2021/06/23 06:33:15;;;;;;;10.82;5.30;;;;;;;17.22;57.23;102063.56;5028292;27;123688;-74
2021/06/23 06:35:42;;;;;;;9.20;4.68;;;;;;;17.24;57.35;102056.31;5026297;27;123459;-74
2021/06/23 06:38:10;;;;;;;11.13;4.97;;;;;;;17.25;57.09;102065.19;5027941;27;119598;-74
2021/06/23 06:40:37;;;;;;;9.73;4.82;;;;;;;17.26;57.17;102070.47;5028618;27;118989;-74
2021/06/23 06:43:04;;;;;;;10.15;4.72;;;;;;;17.29;57.18;102075.69;5012349;27;124850;-74
2021/06/23 06:45:31;;;;;;;7.70;4.80;;;;;;;17.30;57.23;102080.06;5024553;27;123584;-74
2021/06/23 06:47:59;;;;;;;8.02;4.28;;;;;;;17.34;57.17;102079.91;5014651;27;117633;-74
2021/06/23 06:50:26;;;;;;;11.30;4.90;;;;;;;17.37;57.03;102077.06;5025549;27;116744;-74
2021/06/23 06:52:54;;;;;;;11.25;4.90;;;;;;;17.41;56.90;102074.13;5036918;27;123846;-74
2021/06/23 06:55:21;;;;;;;10.25;4.72;;;;;;;17.44;57.27;102078.44;5045585;27;124043;-74
2021/06/23 06:57:50;;;;;;;7.43;4.97;;;;;;;17.49;57.31;102079.06;5044531;27;120571;-74
2021/06/23 07:00:19;;;;;;;9.98;4.38;;;;;;;17.52;57.29;102076.25;5050050;27;120065;-74
2021/06/23 07:02:46;;;;;;;8.68;4.38;;;;;;;17.58;57.08;102086.63;5037613;27;124095;-74
2021/06/23 07:05:14;;;;;;;9.75;4.63;;;;;;;17.61;56.89;102080.22;5049585;27;123026;-74
2021/06/23 07:07:41;;;;;;;8.15;4.07;;;;;;;17.64;56.85;102088.94;5047352;27;119133;-74
2021/06/23 07:10:09;;;;;;;9.95;4.32;;;;;;;17.67;56.73;102090.63;5031664;27;118972;-74
2021/06/23 07:12:36;;;;;;;9.23;4.40;;;;;;;17.68;56.45;102093.19;5039783;27;122918;-74
2021/06/23 07:15:04;;;;;;;8.82;4.40;;;;;;;17.70;56.47;102090.41;5034896;27;124570;-74
2021/06/23 07:17:31;;;;;;;9.18;4.50;;;;;;;17.73;56.57;102089.41;5030171;27;119387;-74
2021/06/23 07:19:58;;;;;;;9.77;4.60;;;;;;;17.74;56.50;102091.13;5030991;27;119579;-74
2021/06/23 07:22:26;;;;;;;6.53;4.05;;;;;;;17.77;56.54;102080.25;5036091;27;124604;-74
2021/06/23 07:24:53;;;;;;;9.05;4.30;;;;;;;17.80;56.18;102075.59;5034393;27;121846;-74
2021/06/23 07:27:22;;;;;;;9.38;4.25;;;;;;;17.83;56.07;102079.91;5030594;27;119492;-74
2021/06/23 07:29:50;;;;;;;10.52;4.50;;;;;;;17.87;56.28;102081.47;5031441;27;119252;-74
2021/06/23 07:32:27;;;;;;;8.75;4.22;;;;;;;17.92;56.28;102079.41;5030119;27;123368;-73
2021/06/23 07:37:39;;;;;;;10.48;4.50;;;;;;;18.02;56.43;102075.25;5013713;27;119081;-74
2021/06/23 07:40:07;;;;;;;8.65;4.03;;;;;;;18.09;56.12;102071.28;5034254;27;119970;-74
2021/06/23 07:42:34;;;;;;;8.07;4.10;;;;;;;18.15;55.78;102069.19;5032319;27;123985;-74
2021/06/23 07:45:03;;;;;;;7.38;4.20;;;;;;;18.20;55.71;102061.75;5029272;27;123810;-74
2021/06/23 07:47:35;;;;;;;9.82;4.25;;;;;;;18.24;55.50;102071.34;5030581;27;121023;-73
2021/06/23 07:50:04;;;;;;;6.75;3.88;;;;;;;18.29;55.12;102066.59;5037918;27;119933;-74
2021/06/23 08:01:41;;;;;;;6.25;3.80;;;;;;;18.52;55.53;102073.28;4990957;28;119260;-74
2021/06/23 08:09:42;;;;;;;;;;;;;;;18.72;55.32;102085.50;5035585;27;119013;-74
2021/06/23 08:12:17;;;;;;;6.75;3.05;;;;;;;18.77;54.63;102083.41;5035287;27;118839;-74
2021/06/23 08:14:45;;;;;;;6.32;3.33;;;;;;;18.77;54.56;102088.78;5048597;27;124483;-74
2021/06/23 08:17:12;;;;;;;5.25;3.38;;;;;;;18.80;54.46;102080.59;5016296;27;124045;-74
2021/06/23 08:19:39;;;;;;;9.02;3.55;;;;;;;18.82;54.44;102086.72;5042297;27;119542;-74
2021/06/23 08:22:10;;;;;;;9.80;3.30;;;;;;;18.83;54.14;102076.84;5030521;27;119394;-74
2021/06/23 08:24:39;;;;;;;6.25;3.47;;;;;;;18.88;53.93;102073.91;5040436;27;122961;-74
2021/06/23 08:27:07;;;;;;;7.32;3.63;;;;;;;18.91;54.11;102074.59;5044353;27;123345;-74
2021/06/23 08:29:34;;;;;;;6.80;3.65;;;;;;;18.96;54.16;102071.59;5038971;27;118813;-74
2021/06/23 08:32:02;;;;;;;8.70;3.85;;;;;;;19.01;54.23;102069.50;5034615;27;119551;-74
2021/06/23 08:34:29;;;;;;;8.23;3.45;;;;;;;19.08;54.06;102073.56;5029979;27;123972;-74
2021/06/23 08:36:57;;;;;;;6.80;3.30;;;;;;;19.15;54.01;102082.09;5028198;28;122795;-74
2021/06/23 08:39:25;;;;;;;7.93;3.15;;;;;;;19.21;53.65;102079.91;5028055;27;120409;-73
2021/06/23 08:41:52;;;;;;;6.43;3.25;;;;;;;19.30;53.75;102082.97;5029033;27;119660;-74
2021/06/23 08:44:20;;;;;;;6.03;3.30;;;;;;;19.36;53.89;102079.88;5022938;27;123779;-73
2021/06/23 08:46:50;;;;;;;9.73;3.40;;;;;;;19.42;53.57;102084.88;5018339;27;123727;-74
2021/06/23 08:49:18;;;;;;;8.60;3.72;;;;;;;19.46;53.58;102081.06;5016822;27;120903;-74
2021/06/23 08:51:45;;;;;;;6.82;3.47;;;;;;;19.52;53.64;102086.03;5020724;27;118653;-74
2021/06/23 08:54:12;;;;;;;8.77;3.53;;;;;;;19.57;53.46;102083.94;5013148;27;124714;-74
2021/06/23 08:56:40;;;;;;;6.78;3.47;;;;;;;19.62;53.34;102087.16;5025832;27;124129;-74
2021/06/23 08:59:07;;;;;;;6.50;3.40;;;;;;;19.65;52.79;102081.59;5021631;27;119157;-74
2021/06/23 09:01:34;;;;;;;6.28;3.63;;;;;;;19.67;52.42;102091.41;5016838;27;118770;-73
2021/06/23 09:04:01;;;;;;;6.38;3.45;;;;;;;19.65;52.42;102086.97;5023738;27;124162;-74
2021/06/23 09:06:55;;;;;;;5.18;2.90;;;;;;;19.68;52.47;102090.44;5017953;27;124780;-74
2021/06/23 09:09:34;;;;;;;7.28;3.42;;;;;;;19.72;52.44;102086.56;5012368;27;119653;-73
2021/06/23 09:12:07;;;;;;;7.57;3.13;;;;;;;19.76;52.10;102089.03;5027301;27;118650;-74
2021/06/23 09:14:37;;;;;;;6.63;3.10;;;;;;;19.82;52.04;102093.16;5022335;27;124335;-74
2021/06/23 09:17:15;;;;;;;5.68;2.85;;;;;;;19.84;51.83;102096.59;5021858;27;123932;-73
2021/06/23 09:19:57;;;;;;;7.07;3.20;;;;;;;19.89;51.81;102088.22;5026788;27;119078;-73
2021/06/23 09:22:45;;;;;;;6.03;2.88;;;;;;;19.95;51.81;102093.22;5026468;27;117507;-73
2021/06/23 09:25:12;;;;;;;5.10;3.00;;;;;;;20.00;51.84;102091.97;5026855;27;121939;-74
2021/06/23 09:27:49;;;;;;;7.28;3.80;;;;;;;20.08;51.86;102077.13;5030659;27;123635;-73
2021/06/23 09:30:24;;;;;;;8.05;3.40;;;;;;;20.16;51.66;102080.19;5035268;27;119096;-74
2021/06/23 09:33:11;;;;;;;7.05;3.75;;;;;;;20.23;51.43;102081.50;5025387;27;122200;-73
2021/06/23 09:35:41;;;;;;;6.75;2.97;;;;;;;20.29;51.32;102081.09;5032355;27;123445;-73
2021/06/23 09:38:41;;;;;;;8.10;3.13;;;;;;;20.36;51.05;102084.22;5022789;27;124586;-74
2021/06/23 09:41:27;;;;;;;6.95;3.20;;;;;;;20.41;51.20;102091.03;5024285;27;118774;-74
2021/06/23 09:44:06;;;;;;;7.55;3.00;;;;;;;20.49;50.57;102093.19;5020626;27;118996;-74
2021/06/23 09:46:36;;;;;;;7.95;3.17;;;;;;;20.50;50.29;102096.78;5026861;27;122763;-73
2021/06/23 09:49:18;;;;;;;5.93;2.80;;;;;;;20.51;50.25;102085.03;5018893;27;122960;-74
2021/06/23 09:51:51;;;;;;;6.70;3.33;;;;;;;20.52;50.14;102087.63;5013668;27;118699;-73
2021/06/23 09:54:24;;;;;;;5.82;3.00;;;;;;;20.54;49.99;102084.84;5022954;27;119121;-73
2021/06/23 09:57:08;;;;;;;7.55;2.95;;;;;;;20.55;49.96;102086.53;5023182;27;124262;-73
2021/06/23 10:02:22;;;;;;;7.57;3.05;;;;;;;20.60;49.66;102095.22;5022789;27;119240;-73
2021/06/23 10:04:50;;;;;;;4.90;2.92;;;;;;;20.58;49.52;102097.13;5018783;27;118759;-74
2021/06/23 10:07:39;;;;;;;5.93;3.05;;;;;;;20.54;49.54;102091.06;5024297;27;123927;-74
2021/06/23 10:10:08;;;;;;;7.97;2.90;;;;;;;20.57;49.44;102096.25;5020084;27;124245;-74
2021/06/23 10:12:35;;;;;;;4.28;2.70;;;;;;;20.59;49.42;102093.47;5025679;27;119053;-73
2021/06/23 10:15:03;;;;;;;7.03;3.10;;;;;;;20.63;49.12;102096.84;5005025;27;117860;-74
2021/06/23 10:17:31;;;;;;;7.95;3.10;;;;;;;20.67;49.20;102095.69;5017601;27;123987;-74
2021/06/23 10:20:02;;;;;;;8.25;3.00;;;;;;;20.70;49.04;102096.34;4996696;27;123036;-74
2021/06/23 10:22:30;;;;;;;6.22;2.88;;;;;;;20.72;48.87;102094.41;5014906;27;119567;-74
2021/06/23 10:25:03;;;;;;;8.25;3.00;;;;;;;20.74;48.98;102097.84;5025471;27;118836;-74
2021/06/23 10:27:33;;;;;;;5.90;3.10;;;;;;;20.79;49.02;102101.09;5015058;28;125390;-74
2021/06/23 10:30:01;;;;;;;7.18;2.90;;;;;;;20.86;48.90;102106.06;5039794;27;121849;-74
2021/06/23 10:32:29;;;;;;;7.20;3.35;;;;;;;20.91;48.99;102093.16;5018452;27;121142;-74
2021/06/23 10:34:56;;;;;;;7.13;3.20;;;;;;;20.94;48.88;102098.28;5026782;27;118874;-73
2021/06/23 10:37:25;;;;;;;7.60;3.17;;;;;;;20.95;48.47;102100.03;4999991;27;122650;-74
2021/06/23 10:39:53;;;;;;;9.02;3.22;;;;;;;20.97;48.52;102103.47;5032837;27;122531;-73
2021/06/23 10:42:25;;;;;;;4.68;2.97;;;;;;;20.97;48.47;102095.41;5034262;27;117569;-73
2021/06/23 10:44:55;;;;;;;8.20;3.35;;;;;;;20.97;48.50;102092.72;5028089;27;117319;-74
2021/06/23 10:47:39;;;;;;;8.25;3.10;;;;;;;20.99;48.26;102090.78;5025506;27;124742;-74
2021/06/23 10:50:08;;;;;;;7.20;3.03;;;;;;;20.99;48.23;102093.47;5021902;27;123640;-74
2021/06/23 10:52:39;;;;;;;7.10;3.40;;;;;;;21.00;48.23;102092.47;5011984;28;115949;-74
2021/06/23 10:55:26;;;;;;;6.43;3.00;;;;;;;21.02;48.36;102095.06;5053739;27;117070;-74
2021/06/23 10:58:04;;;;;;;5.97;3.38;;;;;;;21.04;48.11;102098.53;5030965;27;123867;-74
2021/06/23 11:00:32;;;;;;;5.30;3.30;;;;;;;21.04;48.15;102104.78;5014541;27;123797;-74
2021/06/23 11:03:00;;;;;;;5.93;3.00;;;;;;;21.07;48.44;102104.56;5013852;27;118972;-74
2021/06/23 11:05:49;;;;;;;7.00;3.60;;;;;;;21.09;48.34;102108.00;5018712;27;118286;-73
2021/06/23 11:08:20;;;;;;;6.50;3.25;;;;;;;21.12;48.15;102096.16;5013669;27;124888;-74
2021/06/23 11:10:48;;;;;;;7.00;3.40;;;;;;;21.15;48.16;102104.03;5015647;27;124836;-74
2021/06/23 11:13:20;;;;;;;7.03;3.45;;;;;;;21.16;48.01;102101.22;5000858;27;117188;-73
2021/06/23 11:15:51;;;;;;;9.32;3.65;;;;;;;21.22;47.86;102107.16;5015865;27;118717;-74
2021/06/23 11:18:35;;;;;;;7.50;3.67;;;;;;;21.23;47.64;102103.47;5019419;27;123513;-74
2021/06/23 11:21:14;;;;;;;7.32;3.20;;;;;;;21.24;47.78;102107.91;5017720;27;123562;-74
2021/06/23 11:23:58;;;;;;;11.02;3.55;;;;;;;21.26;47.85;102104.13;5008141;27;119135;-74
2021/06/23 11:26:26;;;;;;;6.00;3.63;;;;;;;21.26;47.40;102097.88;5012601;27;117931;-73
2021/06/23 11:29:09;;;;;;;7.60;3.55;;;;;;;21.25;47.70;102096.16;5017713;27;124464;-73
2021/06/23 11:31:54;;;;;;;6.60;3.40;;;;;;;21.27;47.96;102094.25;5010146;27;123953;-73
2021/06/23 11:34:37;;;;;;;8.05;3.20;;;;;;;21.33;47.96;102104.56;5033425;27;118825;-74
2021/06/23 11:37:06;;;;;;;7.35;3.88;;;;;;;21.35;47.31;102094.53;5022784;27;118901;-73
2021/06/23 11:39:33;;;;;;;4.38;3.15;;;;;;;21.36;47.18;102093.56;5018026;27;123964;-74
2021/06/23 11:42:01;;;;;;;6.45;3.38;;;;;;;21.38;47.52;102091.66;5031066;27;124351;-74
2021/06/23 11:44:30;;;;;;;5.93;3.40;;;;;;;21.40;47.49;102097.78;5032826;27;118732;-73
2021/06/23 11:47:01;;;;;;;8.00;3.38;;;;;;;21.43;47.04;102100.25;5027205;27;119709;-74
2021/06/23 11:49:33;;;;;;;8.35;3.45;;;;;;;21.45;46.93;102092.94;5018908;27;124285;-74
2021/06/23 11:52:03;;;;;;;7.78;3.80;;;;;;;21.48;47.05;102087.34;5039825;27;123721;-74
2021/06/23 11:54:30;;;;;;;6.90;4.10;;;;;;;21.52;47.06;102088.84;5034040;27;119074;-73